sensor_id;sensor_type;location;lat;lon;timestamp;P1;durP1;ratioP1;P2;durP2;ratioP2
58928;SDS011;44713;53.378;10.022;2023-01-04T00:00:19;7.03;;;1.60;;
58928;SDS011;44713;53.378;10.022;2023-01-04T00:02:44;7.18;;;1.52;;
58928;SDS011;44713;53.378;10.022;2023-01-04T00:05:09;3.67;;;1.70;;
58928;SDS011;44713;53.378;10.022;2023-01-04T00:07:35;6.15;;;2.00;;
58928;SDS011;44713;53.378;10.022;2023-01-04T00:10:00;6.65;;;1.67;;
58928;SDS011;44713;53.378;10.022;2023-01-04T00:12:25;6.43;;;1.70;;
58928;SDS011;44713;53.378;10.022;2023-01-04T00:14:51;5.93;;;1.90;;
58928;SDS011;44713;53.378;10.022;2023-01-04T00:17:16;5.60;;;1.50;;
58928;SDS011;44713;53.378;10.022;2023-01-04T00:19:41;7.97;;;1.80;;
58928;SDS011;44713;53.378;10.022;2023-01-04T00:22:07;4.00;;;1.40;;
58928;SDS011;44713;53.378;10.022;2023-01-04T00:24:32;3.45;;;1.25;;
58928;SDS011;44713;53.378;10.022;2023-01-04T00:26:57;5.10;;;1.50;;
58928;SDS011;44713;53.378;10.022;2023-01-04T00:29:23;4.50;;;1.40;;
58928;SDS011;44713;53.378;10.022;2023-01-04T00:31:48;5.85;;;1.55;;
58928;SDS011;44713;53.378;10.022;2023-01-04T00:34:15;2.70;;;1.33;;
58928;SDS011;44713;53.378;10.022;2023-01-04T00:36:41;4.70;;;1.17;;
58928;SDS011;44713;53.378;10.022;2023-01-04T00:39:08;2.53;;;1.23;;
58928;SDS011;44713;53.378;10.022;2023-01-04T00:41:46;2.90;;;1.33;;
58928;SDS011;44713;53.378;10.022;2023-01-04T00:44:13;5.85;;;1.48;;
58928;SDS011;44713;53.378;10.022;2023-01-04T00:46:39;5.15;;;1.50;;
58928;SDS011;44713;53.378;10.022;2023-01-04T00:49:06;2.83;;;1.20;;
58928;SDS011;44713;53.378;10.022;2023-01-04T00:51:33;4.68;;;1.42;;
58928;SDS011;44713;53.378;10.022;2023-01-04T00:53:59;3.35;;;1.20;;
58928;SDS011;44713;53.378;10.022;2023-01-04T00:56:29;4.25;;;1.20;;
58928;SDS011;44713;53.378;10.022;2023-01-04T00:58:55;5.57;;;1.25;;
58928;SDS011;44713;53.378;10.022;2023-01-04T01:01:22;3.75;;;1.20;;
58928;SDS011;44713;53.378;10.022;2023-01-04T01:03:55;2.00;;;1.23;;
58928;SDS011;44713;53.378;10.022;2023-01-04T01:06:23;5.18;;;1.20;;
58928;SDS011;44713;53.378;10.022;2023-01-04T01:08:49;3.22;;;1.00;;
58928;SDS011;44713;53.378;10.022;2023-01-04T01:11:18;6.55;;;1.23;;
58928;SDS011;44713;53.378;10.022;2023-01-04T01:13:45;7.47;;;1.40;;
58928;SDS011;44713;53.378;10.022;2023-01-04T01:16:12;4.32;;;1.17;;
58928;SDS011;44713;53.378;10.022;2023-01-04T01:18:39;3.75;;;1.30;;
58928;SDS011;44713;53.378;10.022;2023-01-04T01:21:06;2.92;;;1.30;;
58928;SDS011;44713;53.378;10.022;2023-01-04T01:23:34;5.93;;;1.25;;
58928;SDS011;44713;53.378;10.022;2023-01-04T01:26:03;4.40;;;1.30;;
58928;SDS011;44713;53.378;10.022;2023-01-04T01:28:30;8.68;;;1.42;;
58928;SDS011;44713;53.378;10.022;2023-01-04T01:30:55;2.25;;;1.15;;
58928;SDS011;44713;53.378;10.022;2023-01-04T01:33:23;5.60;;;1.58;;
58928;SDS011;44713;53.378;10.022;2023-01-04T01:35:50;3.72;;;1.38;;
58928;SDS011;44713;53.378;10.022;2023-01-04T01:38:15;4.75;;;1.20;;
58928;SDS011;44713;53.378;10.022;2023-01-04T01:40:41;3.78;;;1.30;;
58928;SDS011;44713;53.378;10.022;2023-01-04T01:43:17;3.80;;;1.55;;
58928;SDS011;44713;53.378;10.022;2023-01-04T01:45:45;4.80;;;1.25;;
58928;SDS011;44713;53.378;10.022;2023-01-04T01:48:17;5.05;;;1.48;;
58928;SDS011;44713;53.378;10.022;2023-01-04T01:50:55;2.35;;;1.13;;
58928;SDS011;44713;53.378;10.022;2023-01-04T01:53:23;5.82;;;2.00;;
58928;SDS011;44713;53.378;10.022;2023-01-04T01:55:50;4.40;;;1.30;;
58928;SDS011;44713;53.378;10.022;2023-01-04T01:58:18;7.07;;;1.40;;
58928;SDS011;44713;53.378;10.022;2023-01-04T02:00:49;2.35;;;1.10;;
58928;SDS011;44713;53.378;10.022;2023-01-04T02:03:16;3.33;;;1.20;;
58928;SDS011;44713;53.378;10.022;2023-01-04T02:05:45;4.60;;;1.20;;
58928;SDS011;44713;53.378;10.022;2023-01-04T02:08:15;4.72;;;1.35;;
58928;SDS011;44713;53.378;10.022;2023-01-04T02:10:42;4.95;;;1.30;;
58928;SDS011;44713;53.378;10.022;2023-01-04T02:13:10;2.95;;;1.17;;
58928;SDS011;44713;53.378;10.022;2023-01-04T02:15:56;4.53;;;1.30;;
58928;SDS011;44713;53.378;10.022;2023-01-04T02:18:32;3.33;;;1.15;;
58928;SDS011;44713;53.378;10.022;2023-01-04T02:34:12;5.93;;;1.50;;
58928;SDS011;44713;53.378;10.022;2023-01-04T02:39:38;6.45;;;1.55;;
58928;SDS011;44713;53.378;10.022;2023-01-04T02:45:35;4.22;;;1.00;;
58928;SDS011;44713;53.378;10.022;2023-01-04T02:48:05;4.70;;;1.45;;
58928;SDS011;44713;53.378;10.022;2023-01-04T02:50:55;4.22;;;1.30;;
58928;SDS011;44713;53.378;10.022;2023-01-04T02:53:23;5.13;;;1.10;;
58928;SDS011;44713;53.378;10.022;2023-01-04T03:01:22;6.82;;;1.45;;
58928;SDS011;44713;53.378;10.022;2023-01-04T03:04:26;5.72;;;1.48;;
58928;SDS011;44713;53.378;10.022;2023-01-04T03:12:15;3.22;;;1.10;;
58928;SDS011;44713;53.378;10.022;2023-01-04T03:17:49;4.30;;;1.35;;
58928;SDS011;44713;53.378;10.022;2023-01-04T03:23:07;3.65;;;1.27;;
58928;SDS011;44713;53.378;10.022;2023-01-04T03:26:05;6.13;;;1.33;;
58928;SDS011;44713;53.378;10.022;2023-01-04T03:28:53;4.97;;;1.10;;
58928;SDS011;44713;53.378;10.022;2023-01-04T03:31:41;7.93;;;1.42;;
58928;SDS011;44713;53.378;10.022;2023-01-04T03:34:30;2.40;;;1.13;;
58928;SDS011;44713;53.378;10.022;2023-01-04T03:37:22;6.10;;;1.20;;
58928;SDS011;44713;53.378;10.022;2023-01-04T03:45:54;6.53;;;1.40;;
58928;SDS011;44713;53.378;10.022;2023-01-04T03:49:02;4.85;;;1.40;;
58928;SDS011;44713;53.378;10.022;2023-01-04T03:51:37;5.07;;;1.15;;
58928;SDS011;44713;53.378;10.022;2023-01-04T03:56:41;2.60;;;1.42;;
58928;SDS011;44713;53.378;10.022;2023-01-04T03:59:09;6.57;;;1.23;;
58928;SDS011;44713;53.378;10.022;2023-01-04T04:01:35;10.23;;;2.00;;
58928;SDS011;44713;53.378;10.022;2023-01-04T04:04:02;3.60;;;1.77;;
58928;SDS011;44713;53.378;10.022;2023-01-04T04:06:46;7.45;;;1.42;;
58928;SDS011;44713;53.378;10.022;2023-01-04T04:09:30;4.82;;;1.40;;
58928;SDS011;44713;53.378;10.022;2023-01-04T04:11:56;6.15;;;1.83;;
58928;SDS011;44713;53.378;10.022;2023-01-04T04:14:22;5.10;;;1.35;;
58928;SDS011;44713;53.378;10.022;2023-01-04T04:16:47;8.15;;;1.48;;
58928;SDS011;44713;53.378;10.022;2023-01-04T04:19:12;3.67;;;1.70;;
58928;SDS011;44713;53.378;10.022;2023-01-04T04:21:38;7.95;;;1.70;;
58928;SDS011;44713;53.378;10.022;2023-01-04T04:24:03;4.47;;;1.50;;
58928;SDS011;44713;53.378;10.022;2023-01-04T04:26:29;4.43;;;1.58;;
58928;SDS011;44713;53.378;10.022;2023-01-04T04:28:55;4.10;;;1.90;;
58928;SDS011;44713;53.378;10.022;2023-01-04T04:31:20;4.80;;;1.33;;
58928;SDS011;44713;53.378;10.022;2023-01-04T04:33:45;4.25;;;1.42;;
58928;SDS011;44713;53.378;10.022;2023-01-04T04:36:11;5.57;;;1.73;;
58928;SDS011;44713;53.378;10.022;2023-01-04T04:38:36;4.05;;;1.45;;
58928;SDS011;44713;53.378;10.022;2023-01-04T04:41:08;6.72;;;2.72;;
58928;SDS011;44713;53.378;10.022;2023-01-04T04:43:54;4.13;;;1.60;;
58928;SDS011;44713;53.378;10.022;2023-01-04T04:46:21;5.30;;;1.70;;
58928;SDS011;44713;53.378;10.022;2023-01-04T04:48:47;4.72;;;1.95;;
58928;SDS011;44713;53.378;10.022;2023-01-04T04:51:12;4.38;;;1.90;;
58928;SDS011;44713;53.378;10.022;2023-01-04T04:53:37;5.95;;;1.80;;
58928;SDS011;44713;53.378;10.022;2023-01-04T04:56:03;5.80;;;1.80;;
58928;SDS011;44713;53.378;10.022;2023-01-04T04:58:28;5.97;;;1.92;;
58928;SDS011;44713;53.378;10.022;2023-01-04T05:00:54;4.43;;;1.80;;
58928;SDS011;44713;53.378;10.022;2023-01-04T05:03:19;5.82;;;1.90;;
58928;SDS011;44713;53.378;10.022;2023-01-04T05:05:44;9.48;;;1.92;;
58928;SDS011;44713;53.378;10.022;2023-01-04T05:08:10;14.32;;;2.72;;
58928;SDS011;44713;53.378;10.022;2023-01-04T05:10:36;4.47;;;1.65;;
58928;SDS011;44713;53.378;10.022;2023-01-04T05:13:02;6.82;;;1.70;;
58928;SDS011;44713;53.378;10.022;2023-01-04T05:15:34;6.57;;;1.80;;
58928;SDS011;44713;53.378;10.022;2023-01-04T05:18:02;4.38;;;1.90;;
58928;SDS011;44713;53.378;10.022;2023-01-04T05:20:28;3.40;;;1.83;;
58928;SDS011;44713;53.378;10.022;2023-01-04T05:22:53;4.78;;;1.85;;
58928;SDS011;44713;53.378;10.022;2023-01-04T05:25:19;5.55;;;1.60;;
58928;SDS011;44713;53.378;10.022;2023-01-04T05:27:44;5.20;;;2.10;;
58928;SDS011;44713;53.378;10.022;2023-01-04T05:30:11;6.80;;;1.90;;
58928;SDS011;44713;53.378;10.022;2023-01-04T05:32:56;3.42;;;1.77;;
58928;SDS011;44713;53.378;10.022;2023-01-04T05:35:22;3.92;;;1.70;;
58928;SDS011;44713;53.378;10.022;2023-01-04T05:37:47;2.72;;;1.60;;
58928;SDS011;44713;53.378;10.022;2023-01-04T05:40:12;4.35;;;1.50;;
58928;SDS011;44713;53.378;10.022;2023-01-04T05:42:38;3.75;;;1.45;;
58928;SDS011;44713;53.378;10.022;2023-01-04T05:45:03;2.55;;;1.40;;
58928;SDS011;44713;53.378;10.022;2023-01-04T05:47:29;3.17;;;1.30;;
58928;SDS011;44713;53.378;10.022;2023-01-04T05:49:54;3.92;;;1.23;;
58928;SDS011;44713;53.378;10.022;2023-01-04T05:52:20;3.80;;;1.70;;
58928;SDS011;44713;53.378;10.022;2023-01-04T05:54:45;5.50;;;1.52;;
58928;SDS011;44713;53.378;10.022;2023-01-04T05:57:11;4.15;;;1.40;;
58928;SDS011;44713;53.378;10.022;2023-01-04T05:59:37;3.45;;;1.40;;
58928;SDS011;44713;53.378;10.022;2023-01-04T06:02:03;3.75;;;1.70;;
58928;SDS011;44713;53.378;10.022;2023-01-04T06:04:29;3.58;;;1.33;;
58928;SDS011;44713;53.378;10.022;2023-01-04T06:06:54;4.03;;;1.60;;
58928;SDS011;44713;53.378;10.022;2023-01-04T06:09:20;5.20;;;1.30;;
58928;SDS011;44713;53.378;10.022;2023-01-04T06:11:45;2.97;;;1.20;;
58928;SDS011;44713;53.378;10.022;2023-01-04T06:14:10;2.63;;;1.58;;
58928;SDS011;44713;53.378;10.022;2023-01-04T06:16:36;3.55;;;1.30;;
58928;SDS011;44713;53.378;10.022;2023-01-04T06:19:01;5.38;;;1.20;;
58928;SDS011;44713;53.378;10.022;2023-01-04T06:21:26;2.60;;;1.23;;
58928;SDS011;44713;53.378;10.022;2023-01-04T06:23:52;4.55;;;1.40;;
58928;SDS011;44713;53.378;10.022;2023-01-04T06:26:18;1.80;;;1.10;;
58928;SDS011;44713;53.378;10.022;2023-01-04T06:28:43;3.47;;;1.35;;
58928;SDS011;44713;53.378;10.022;2023-01-04T06:31:09;3.85;;;1.30;;
58928;SDS011;44713;53.378;10.022;2023-01-04T06:33:36;3.25;;;1.40;;
58928;SDS011;44713;53.378;10.022;2023-01-04T06:36:01;4.68;;;1.40;;
58928;SDS011;44713;53.378;10.022;2023-01-04T06:38:27;3.53;;;1.60;;
58928;SDS011;44713;53.378;10.022;2023-01-04T06:40:53;2.83;;;1.40;;
58928;SDS011;44713;53.378;10.022;2023-01-04T06:43:18;3.30;;;1.48;;
58928;SDS011;44713;53.378;10.022;2023-01-04T06:45:43;2.78;;;1.33;;
58928;SDS011;44713;53.378;10.022;2023-01-04T06:48:09;3.20;;;1.30;;
58928;SDS011;44713;53.378;10.022;2023-01-04T06:50:34;3.67;;;1.05;;
58928;SDS011;44713;53.378;10.022;2023-01-04T06:52:59;2.03;;;1.38;;
58928;SDS011;44713;53.378;10.022;2023-01-04T06:55:25;3.10;;;1.52;;
58928;SDS011;44713;53.378;10.022;2023-01-04T06:57:50;2.95;;;1.10;;
58928;SDS011;44713;53.378;10.022;2023-01-04T07:00:16;2.47;;;1.38;;
58928;SDS011;44713;53.378;10.022;2023-01-04T07:02:41;2.70;;;1.40;;
58928;SDS011;44713;53.378;10.022;2023-01-04T07:05:07;7.47;;;1.52;;
58928;SDS011;44713;53.378;10.022;2023-01-04T07:07:32;1.17;;;1.08;;
58928;SDS011;44713;53.378;10.022;2023-01-04T07:09:59;2.08;;;1.52;;
58928;SDS011;44713;53.378;10.022;2023-01-04T07:12:25;1.42;;;1.20;;
58928;SDS011;44713;53.378;10.022;2023-01-04T07:14:50;3.67;;;1.80;;
58928;SDS011;44713;53.378;10.022;2023-01-04T07:17:15;1.95;;;1.48;;
58928;SDS011;44713;53.378;10.022;2023-01-04T07:19:41;3.28;;;1.10;;
58928;SDS011;44713;53.378;10.022;2023-01-04T07:22:06;3.25;;;1.20;;
58928;SDS011;44713;53.378;10.022;2023-01-04T07:24:32;2.50;;;1.38;;
58928;SDS011;44713;53.378;10.022;2023-01-04T07:27:00;2.22;;;1.30;;
58928;SDS011;44713;53.378;10.022;2023-01-04T07:29:26;2.40;;;1.83;;
58928;SDS011;44713;53.378;10.022;2023-01-04T07:31:52;1.52;;;1.42;;
58928;SDS011;44713;53.378;10.022;2023-01-04T07:34:18;2.83;;;1.80;;
58928;SDS011;44713;53.378;10.022;2023-01-04T07:36:45;2.80;;;1.60;;
58928;SDS011;44713;53.378;10.022;2023-01-04T07:39:11;1.83;;;1.65;;
58928;SDS011;44713;53.378;10.022;2023-01-04T07:41:38;4.18;;;2.40;;
58928;SDS011;44713;53.378;10.022;2023-01-04T07:44:04;4.10;;;2.80;;
58928;SDS011;44713;53.378;10.022;2023-01-04T07:46:31;6.00;;;2.72;;
58928;SDS011;44713;53.378;10.022;2023-01-04T07:48:57;5.50;;;2.78;;
58928;SDS011;44713;53.378;10.022;2023-01-04T07:51:22;3.35;;;2.83;;
58928;SDS011;44713;53.378;10.022;2023-01-04T07:53:48;7.22;;;3.85;;
58928;SDS011;44713;53.378;10.022;2023-01-04T07:56:14;5.32;;;3.95;;
58928;SDS011;44713;53.378;10.022;2023-01-04T07:58:39;3.97;;;3.45;;
58928;SDS011;44713;53.378;10.022;2023-01-04T08:01:10;5.65;;;3.72;;
58928;SDS011;44713;53.378;10.022;2023-01-04T08:03:37;4.38;;;3.75;;
58928;SDS011;44713;53.378;10.022;2023-01-04T08:06:06;6.43;;;3.83;;
58928;SDS011;44713;53.378;10.022;2023-01-04T08:08:34;6.30;;;4.18;;
58928;SDS011;44713;53.378;10.022;2023-01-04T08:11:00;6.25;;;4.20;;
58928;SDS011;44713;53.378;10.022;2023-01-04T08:13:26;7.03;;;4.70;;
58928;SDS011;44713;53.378;10.022;2023-01-04T08:15:52;7.28;;;4.38;;
58928;SDS011;44713;53.378;10.022;2023-01-04T08:18:18;5.55;;;4.93;;
58928;SDS011;44713;53.378;10.022;2023-01-04T08:20:43;4.75;;;4.35;;
58928;SDS011;44713;53.378;10.022;2023-01-04T08:23:09;5.45;;;4.95;;
58928;SDS011;44713;53.378;10.022;2023-01-04T08:25:34;4.47;;;4.07;;
58928;SDS011;44713;53.378;10.022;2023-01-04T08:27:59;5.38;;;4.78;;
58928;SDS011;44713;53.378;10.022;2023-01-04T08:30:25;6.22;;;4.30;;
58928;SDS011;44713;53.378;10.022;2023-01-04T08:32:50;5.55;;;4.85;;
58928;SDS011;44713;53.378;10.022;2023-01-04T08:35:18;4.97;;;4.25;;
58928;SDS011;44713;53.378;10.022;2023-01-04T08:37:44;5.05;;;4.13;;
58928;SDS011;44713;53.378;10.022;2023-01-04T08:40:09;5.15;;;3.92;;
58928;SDS011;44713;53.378;10.022;2023-01-04T08:42:36;4.68;;;3.83;;
58928;SDS011;44713;53.378;10.022;2023-01-04T08:45:01;4.88;;;3.85;;
58928;SDS011;44713;53.378;10.022;2023-01-04T08:47:27;3.40;;;3.10;;
58928;SDS011;44713;53.378;10.022;2023-01-04T08:49:54;3.85;;;3.33;;
58928;SDS011;44713;53.378;10.022;2023-01-04T08:52:20;3.83;;;3.50;;
58928;SDS011;44713;53.378;10.022;2023-01-04T08:54:45;3.75;;;3.40;;
58928;SDS011;44713;53.378;10.022;2023-01-04T08:57:11;3.83;;;2.92;;
58928;SDS011;44713;53.378;10.022;2023-01-04T08:59:37;3.85;;;3.33;;
58928;SDS011;44713;53.378;10.022;2023-01-04T09:02:02;5.93;;;3.15;;
58928;SDS011;44713;53.378;10.022;2023-01-04T09:04:28;3.53;;;3.22;;
58928;SDS011;44713;53.378;10.022;2023-01-04T09:06:53;5.85;;;3.50;;
58928;SDS011;44713;53.378;10.022;2023-01-04T09:09:18;3.70;;;3.40;;
58928;SDS011;44713;53.378;10.022;2023-01-04T09:11:44;3.47;;;3.17;;
58928;SDS011;44713;53.378;10.022;2023-01-04T09:14:09;4.22;;;3.83;;
58928;SDS011;44713;53.378;10.022;2023-01-04T09:16:38;4.10;;;3.72;;
58928;SDS011;44713;53.378;10.022;2023-01-04T09:19:04;3.70;;;3.25;;
58928;SDS011;44713;53.378;10.022;2023-01-04T09:21:30;3.83;;;3.50;;
58928;SDS011;44713;53.378;10.022;2023-01-04T09:23:56;3.67;;;3.38;;
58928;SDS011;44713;53.378;10.022;2023-01-04T09:26:22;3.85;;;3.55;;
58928;SDS011;44713;53.378;10.022;2023-01-04T09:28:48;4.32;;;3.15;;
58928;SDS011;44713;53.378;10.022;2023-01-04T09:31:16;4.28;;;3.88;;
58928;SDS011;44713;53.378;10.022;2023-01-04T09:33:43;4.68;;;3.88;;
58928;SDS011;44713;53.378;10.022;2023-01-04T09:36:10;4.30;;;3.90;;
58928;SDS011;44713;53.378;10.022;2023-01-04T09:38:37;4.45;;;4.05;;
58928;SDS011;44713;53.378;10.022;2023-01-04T09:51:32;5.90;;;5.03;;
58928;SDS011;44713;53.378;10.022;2023-01-04T09:54:02;5.65;;;4.93;;
58928;SDS011;44713;53.378;10.022;2023-01-04T09:56:32;5.15;;;4.65;;
58928;SDS011;44713;53.378;10.022;2023-01-04T09:59:10;5.43;;;4.93;;
58928;SDS011;44713;53.378;10.022;2023-01-04T10:01:45;6.40;;;5.18;;
58928;SDS011;44713;53.378;10.022;2023-01-04T10:06:48;4.68;;;4.28;;
58928;SDS011;44713;53.378;10.022;2023-01-04T10:09:14;4.72;;;4.32;;
58928;SDS011;44713;53.378;10.022;2023-01-04T10:14:39;4.57;;;4.20;;
58928;SDS011;44713;53.378;10.022;2023-01-04T10:19:47;4.13;;;3.72;;
58928;SDS011;44713;53.378;10.022;2023-01-04T10:22:35;4.30;;;3.33;;
58928;SDS011;44713;53.378;10.022;2023-01-04T10:25:38;3.80;;;3.50;;
58928;SDS011;44713;53.378;10.022;2023-01-04T10:30:53;5.22;;;3.17;;
58928;SDS011;44713;53.378;10.022;2023-01-04T10:33:49;3.60;;;3.17;;
58928;SDS011;44713;53.378;10.022;2023-01-04T10:36:23;3.35;;;3.08;;
58928;SDS011;44713;53.378;10.022;2023-01-04T10:39:00;3.47;;;3.10;;
58928;SDS011;44713;53.378;10.022;2023-01-04T10:41:31;4.00;;;3.47;;
58928;SDS011;44713;53.378;10.022;2023-01-04T10:46:45;3.40;;;2.97;;
58928;SDS011;44713;53.378;10.022;2023-01-04T10:49:22;2.88;;;2.58;;
58928;SDS011;44713;53.378;10.022;2023-01-04T10:52:09;3.75;;;2.67;;
58928;SDS011;44713;53.378;10.022;2023-01-04T10:54:57;2.65;;;2.45;;
58928;SDS011;44713;53.378;10.022;2023-01-04T10:59:55;2.78;;;2.58;;
58928;SDS011;44713;53.378;10.022;2023-01-04T11:05:27;2.55;;;2.35;;
58928;SDS011;44713;53.378;10.022;2023-01-04T11:08:10;2.05;;;1.92;;
58928;SDS011;44713;53.378;10.022;2023-01-04T11:10:44;2.80;;;2.60;;
58928;SDS011;44713;53.378;10.022;2023-01-04T11:13:15;2.13;;;2.03;;
58928;SDS011;44713;53.378;10.022;2023-01-04T11:15:41;2.13;;;1.92;;
58928;SDS011;44713;53.378;10.022;2023-01-04T11:18:07;2.13;;;1.92;;
58928;SDS011;44713;53.378;10.022;2023-01-04T11:20:35;2.05;;;1.85;;
58928;SDS011;44713;53.378;10.022;2023-01-04T11:23:03;2.03;;;1.80;;
58928;SDS011;44713;53.378;10.022;2023-01-04T11:25:32;2.00;;;1.70;;
58928;SDS011;44713;53.378;10.022;2023-01-04T11:28:14;3.20;;;1.90;;
58928;SDS011;44713;53.378;10.022;2023-01-04T11:30:49;2.00;;;1.80;;
58928;SDS011;44713;53.378;10.022;2023-01-04T11:33:19;2.78;;;1.83;;
58928;SDS011;44713;53.378;10.022;2023-01-04T11:35:57;1.70;;;1.60;;
58928;SDS011;44713;53.378;10.022;2023-01-04T11:38:27;1.92;;;1.67;;
58928;SDS011;44713;53.378;10.022;2023-01-04T11:41:01;1.67;;;1.42;;
58928;SDS011;44713;53.378;10.022;2023-01-04T11:43:37;1.67;;;1.58;;
58928;SDS011;44713;53.378;10.022;2023-01-04T11:46:22;1.65;;;1.55;;
58928;SDS011;44713;53.378;10.022;2023-01-04T11:48:49;1.48;;;1.38;;
58928;SDS011;44713;53.378;10.022;2023-01-04T11:51:16;1.80;;;1.70;;
58928;SDS011;44713;53.378;10.022;2023-01-04T11:56:24;1.67;;;1.48;;
58928;SDS011;44713;53.378;10.022;2023-01-04T11:59:03;1.40;;;1.30;;
58928;SDS011;44713;53.378;10.022;2023-01-04T12:01:32;1.60;;;1.50;;
58928;SDS011;44713;53.378;10.022;2023-01-04T12:03:58;1.40;;;1.30;;
58928;SDS011;44713;53.378;10.022;2023-01-04T12:06:36;2.00;;;1.80;;
58928;SDS011;44713;53.378;10.022;2023-01-04T12:09:04;1.80;;;1.55;;
58928;SDS011;44713;53.378;10.022;2023-01-04T12:13:59;1.70;;;1.40;;
58928;SDS011;44713;53.378;10.022;2023-01-04T12:16:41;0.98;;;0.98;;
58928;SDS011;44713;53.378;10.022;2023-01-04T12:19:20;1.30;;;1.20;;
58928;SDS011;44713;53.378;10.022;2023-01-04T12:21:48;3.38;;;1.50;;
58928;SDS011;44713;53.378;10.022;2023-01-04T12:24:20;3.10;;;1.10;;
58928;SDS011;44713;53.378;10.022;2023-01-04T12:26:48;1.27;;;1.10;;
58928;SDS011;44713;53.378;10.022;2023-01-04T12:47:03;0.88;;;0.88;;
58928;SDS011;44713;53.378;10.022;2023-01-04T12:52:38;0.70;;;0.70;;
58928;SDS011;44713;53.378;10.022;2023-01-04T12:57:48;2.40;;;0.85;;
58928;SDS011;44713;53.378;10.022;2023-01-04T13:00:14;2.15;;;0.80;;
58928;SDS011;44713;53.378;10.022;2023-01-04T13:02:41;0.90;;;0.80;;
58928;SDS011;44713;53.378;10.022;2023-01-04T13:07:49;0.70;;;0.70;;
58928;SDS011;44713;53.378;10.022;2023-01-04T13:13:12;0.70;;;0.70;;
58928;SDS011;44713;53.378;10.022;2023-01-04T13:18:52;0.73;;;0.50;;
58928;SDS011;44713;53.378;10.022;2023-01-04T13:21:27;0.68;;;0.68;;
58928;SDS011;44713;53.378;10.022;2023-01-04T13:23:59;0.80;;;0.63;;
58928;SDS011;44713;53.378;10.022;2023-01-04T13:26:36;3.90;;;0.50;;
58928;SDS011;44713;53.378;10.022;2023-01-04T13:34:34;0.90;;;0.70;;
58928;SDS011;44713;53.378;10.022;2023-01-04T13:42:04;1.20;;;0.98;;
58928;SDS011;44713;53.378;10.022;2023-01-04T13:47:20;1.02;;;0.70;;
58928;SDS011;44713;53.378;10.022;2023-01-04T13:49:45;0.70;;;0.70;;
58928;SDS011;44713;53.378;10.022;2023-01-04T13:55:09;1.42;;;1.00;;
58928;SDS011;44713;53.378;10.022;2023-01-04T13:58:01;2.17;;;0.77;;
58928;SDS011;44713;53.378;10.022;2023-01-04T14:00:33;1.42;;;0.90;;
58928;SDS011;44713;53.378;10.022;2023-01-04T14:05:34;2.05;;;0.75;;
58928;SDS011;44713;53.378;10.022;2023-01-04T14:08:00;0.98;;;0.60;;
58928;SDS011;44713;53.378;10.022;2023-01-04T14:10:26;5.47;;;0.90;;
58928;SDS011;44713;53.378;10.022;2023-01-04T14:12:52;6.18;;;0.55;;
58928;SDS011;44713;53.378;10.022;2023-01-04T14:15:22;2.72;;;0.73;;
58928;SDS011;44713;53.378;10.022;2023-01-04T14:17:49;4.78;;;0.77;;
58928;SDS011;44713;53.378;10.022;2023-01-04T14:38:39;7.60;;;1.00;;
58928;SDS011;44713;53.378;10.022;2023-01-04T14:46:25;1.40;;;0.75;;
58928;SDS011;44713;53.378;10.022;2023-01-04T14:48:51;2.53;;;0.98;;
58928;SDS011;44713;53.378;10.022;2023-01-04T14:51:18;6.80;;;1.10;;
58928;SDS011;44713;53.378;10.022;2023-01-04T14:53:46;6.30;;;1.13;;
58928;SDS011;44713;53.378;10.022;2023-01-04T14:56:13;2.75;;;1.05;;
58928;SDS011;44713;53.378;10.022;2023-01-04T14:58:40;6.65;;;1.30;;
58928;SDS011;44713;53.378;10.022;2023-01-04T15:01:05;3.28;;;1.20;;
58928;SDS011;44713;53.378;10.022;2023-01-04T15:03:31;5.57;;;1.33;;
58928;SDS011;44713;53.378;10.022;2023-01-04T15:05:56;2.38;;;1.10;;
58928;SDS011;44713;53.378;10.022;2023-01-04T15:08:22;5.38;;;1.50;;
58928;SDS011;44713;53.378;10.022;2023-01-04T15:10:47;3.67;;;1.48;;
58928;SDS011;44713;53.378;10.022;2023-01-04T15:13:14;3.42;;;1.60;;
58928;SDS011;44713;53.378;10.022;2023-01-04T15:15:39;3.58;;;1.52;;
58928;SDS011;44713;53.378;10.022;2023-01-04T15:18:06;5.70;;;1.90;;
58928;SDS011;44713;53.378;10.022;2023-01-04T15:20:31;6.25;;;1.85;;
58928;SDS011;44713;53.378;10.022;2023-01-04T15:22:57;6.65;;;1.75;;
58928;SDS011;44713;53.378;10.022;2023-01-04T15:25:22;8.25;;;2.05;;
58928;SDS011;44713;53.378;10.022;2023-01-04T15:27:49;3.40;;;2.22;;
58928;SDS011;44713;53.378;10.022;2023-01-04T15:30:15;3.38;;;1.80;;
58928;SDS011;44713;53.378;10.022;2023-01-04T15:32:40;5.95;;;2.80;;
58928;SDS011;44713;53.378;10.022;2023-01-04T15:35:05;6.03;;;2.38;;
58928;SDS011;44713;53.378;10.022;2023-01-04T15:37:31;6.65;;;2.30;;
58928;SDS011;44713;53.378;10.022;2023-01-04T15:39:57;4.28;;;2.00;;
58928;SDS011;44713;53.378;10.022;2023-01-04T15:42:22;5.47;;;2.13;;
58928;SDS011;44713;53.378;10.022;2023-01-04T15:45:06;7.70;;;2.53;;
58928;SDS011;44713;53.378;10.022;2023-01-04T15:47:32;6.30;;;2.15;;
58928;SDS011;44713;53.378;10.022;2023-01-04T15:49:58;7.40;;;2.35;;
58928;SDS011;44713;53.378;10.022;2023-01-04T15:52:23;7.97;;;1.98;;
58928;SDS011;44713;53.378;10.022;2023-01-04T15:54:49;6.15;;;1.63;;
58928;SDS011;44713;53.378;10.022;2023-01-04T15:57:14;7.05;;;2.20;;
58928;SDS011;44713;53.378;10.022;2023-01-04T15:59:39;8.27;;;2.30;;
58928;SDS011;44713;53.378;10.022;2023-01-04T16:02:05;6.03;;;1.75;;
58928;SDS011;44713;53.378;10.022;2023-01-04T16:04:31;4.38;;;1.38;;
58928;SDS011;44713;53.378;10.022;2023-01-04T16:06:56;10.50;;;2.38;;
58928;SDS011;44713;53.378;10.022;2023-01-04T16:09:23;10.52;;;1.60;;
58928;SDS011;44713;53.378;10.022;2023-01-04T16:11:49;9.80;;;1.45;;
58928;SDS011;44713;53.378;10.022;2023-01-04T16:14:33;12.00;;;1.80;;
58928;SDS011;44713;53.378;10.022;2023-01-04T16:16:59;6.10;;;1.50;;
58928;SDS011;44713;53.378;10.022;2023-01-04T16:19:24;11.38;;;1.73;;
58928;SDS011;44713;53.378;10.022;2023-01-04T16:21:49;9.05;;;1.58;;
58928;SDS011;44713;53.378;10.022;2023-01-04T16:24:15;7.90;;;1.73;;
58928;SDS011;44713;53.378;10.022;2023-01-04T16:26:41;6.95;;;2.03;;
58928;SDS011;44713;53.378;10.022;2023-01-04T16:29:06;9.48;;;1.83;;
58928;SDS011;44713;53.378;10.022;2023-01-04T16:31:33;8.15;;;1.75;;
58928;SDS011;44713;53.378;10.022;2023-01-04T16:33:59;6.05;;;1.58;;
58928;SDS011;44713;53.378;10.022;2023-01-04T16:36:25;11.52;;;2.05;;
58928;SDS011;44713;53.378;10.022;2023-01-04T16:38:50;11.80;;;1.85;;
58928;SDS011;44713;53.378;10.022;2023-01-04T16:41:16;10.75;;;1.98;;
58928;SDS011;44713;53.378;10.022;2023-01-04T16:43:48;8.25;;;1.92;;
58928;SDS011;44713;53.378;10.022;2023-01-04T16:46:23;6.90;;;1.77;;
58928;SDS011;44713;53.378;10.022;2023-01-04T16:48:54;12.13;;;2.53;;
58928;SDS011;44713;53.378;10.022;2023-01-04T16:51:21;10.90;;;1.95;;
58928;SDS011;44713;53.378;10.022;2023-01-04T16:53:48;12.38;;;2.55;;
58928;SDS011;44713;53.378;10.022;2023-01-04T16:56:15;10.98;;;2.53;;
58928;SDS011;44713;53.378;10.022;2023-01-04T16:58:43;8.48;;;2.08;;
58928;SDS011;44713;53.378;10.022;2023-01-04T17:04:03;12.80;;;2.70;;
58928;SDS011;44713;53.378;10.022;2023-01-04T17:06:35;14.52;;;2.80;;
58928;SDS011;44713;53.378;10.022;2023-01-04T17:09:11;9.80;;;2.42;;
58928;SDS011;44713;53.378;10.022;2023-01-04T17:11:38;13.57;;;2.30;;
58928;SDS011;44713;53.378;10.022;2023-01-04T17:14:04;17.15;;;2.97;;
58928;SDS011;44713;53.378;10.022;2023-01-04T17:16:30;12.40;;;2.08;;
58928;SDS011;44713;53.378;10.022;2023-01-04T17:18:56;14.32;;;2.40;;